Taft, Iran
Current Conditions -  °F | °C
As of 11:00 AM on Friday 31 Oct 2014 (Local Time) from OIYY Reporting Station
Overcast Overcast  
Wind Chill: 59°   Ceiling: 20000
Heat Index: 59°   Visibility: 6mi
Dew Point: 37°   Wind: 7mph
Humidity: 45%   Direction: 160°SSE
Pressure: 30.15"   Gusts: NA
Location:  31.73°N, 54.22°E
Report Text: OIYY 310700Z 16006KT 9999 FEW040 SCT100 OVC200 15/03 Q1021
Loading
Personal Weather Stations






























Interactive Weather Map
Tropical Storm Tracking
New forecast layout! Learn more

10-Day Weather Forecast

Advertisements
Track Severe Weather on mobile